TimeMST,TemperatureF,Dew PointF,Humidity,Sea Level PressureIn,VisibilityMPH,Wind Direction,Wind SpeedMPH,Gust SpeedMPH,PrecipitationIn,Events,Conditions,WindDirDegrees,DateUTC
12:56 AM,66.9,41.0,39,29.81,10.0,Variable,3.5,-,N/A,,Clear,0,2012-10-21 07:56:00
1:56 AM,61.0,41.0,48,29.83,10.0,Calm,Calm,-,N/A,,Clear,0,2012-10-21 08:56:00
2:56 AM,60.1,41.0,49,29.83,10.0,South,4.6,-,N/A,,Clear,180,2012-10-21 09:56:00
3:56 AM,60.1,41.0,49,29.83,10.0,Calm,Calm,-,N/A,,Clear,0,2012-10-21 10:56:00
4:56 AM,57.0,41.0,55,29.85,10.0,East,3.5,-,N/A,,Clear,90,2012-10-21 11:56:00
5:56 AM,57.9,41.0,53,29.88,10.0,Calm,Calm,-,N/A,,Clear,0,2012-10-21 12:56:00
6:56 AM,59.0,41.0,51,29.89,10.0,NNW,3.5,-,N/A,,Clear,330,2012-10-21 13:56:00
7:56 AM,63.0,42.1,46,29.91,10.0,Calm,Calm,-,N/A,,Clear,0,2012-10-21 14:56:00
8:56 AM,66.0,42.1,42,29.91,10.0,East,6.9,-,N/A,,Clear,100,2012-10-21 15:56:00
9:56 AM,70.0,39.9,33,29.91,10.0,Variable,6.9,-,N/A,,Clear,0,2012-10-21 16:56:00
10:56 AM,75.0,35.1,23,29.88,10.0,SW,8.1,-,N/A,,Clear,230,2012-10-21 17:56:00
11:56 AM,75.9,30.0,19,29.86,10.0,South,12.7,20.7,N/A,,Clear,180,2012-10-21 18:56:00
12:56 PM,77.0,32.0,19,29.82,10.0,SSE,6.9,-,N/A,,Clear,150,2012-10-21 19:56:00
1:56 PM,78.1,30.0,17,29.82,10.0,SSW,16.1,21.9,N/A,,Clear,200,2012-10-21 20:56:00
2:56 PM,75.0,30.0,19,29.82,10.0,SSW,12.7,-,N/A,,Clear,200,2012-10-21 21:56:00
3:56 PM,73.0,33.1,23,29.84,10.0,SSW,15.0,23.0,N/A,,Clear,200,2012-10-21 22:56:00
4:56 PM,73.0,34.0,24,29.84,10.0,SW,12.7,-,N/A,,Clear,230,2012-10-21 23:56:00
5:56 PM,68.0,35.1,30,29.87,10.0,WSW,9.2,-,N/A,,Clear,240,2012-10-22 00:56:00
6:56 PM,66.0,35.1,32,29.88,10.0,SW,9.2,-,N/A,,Clear,220,2012-10-22 01:56:00
7:56 PM,64.9,37.0,36,29.88,10.0,SSW,6.9,-,N/A,,Clear,210,2012-10-22 02:56:00
8:56 PM,62.1,36.0,38,29.88,10.0,Calm,Calm,-,N/A,,Clear,0,2012-10-22 03:56:00
9:56 PM,60.1,37.9,44,29.88,10.0,SSW,4.6,-,N/A,,Clear,200,2012-10-22 04:56:00
10:56 PM,59.0,37.0,44,29.87,10.0,SSE,5.8,-,N/A,,Clear,150,2012-10-22 05:56:00
11:56 PM,59.0,39.0,48,29.86,10.0,SW,4.6,-,N/A,,Clear,230,2012-10-22 06:56:00